createdAt,value
2018-09-10T00:02:19.984Z,99.90
2018-09-10T00:04:50.135Z,99.90
2018-09-10T00:07:19.651Z,99.90
2018-09-10T00:09:50.033Z,99.90
2018-09-10T00:12:20.483Z,99.90
2018-09-10T00:14:51.731Z,99.90
2018-09-10T00:17:22.359Z,99.90
2018-09-10T00:19:51.965Z,99.90
2018-09-10T00:22:21.290Z,99.90
2018-09-10T00:24:50.760Z,99.90
2018-09-10T00:27:20.830Z,99.90
2018-09-10T00:29:50.658Z,99.90
2018-09-10T00:32:20.815Z,99.90
2018-09-10T00:34:50.425Z,99.90
2018-09-10T00:37:19.957Z,99.90
2018-09-10T00:39:50.305Z,99.90
2018-09-10T00:42:19.842Z,99.90
2018-09-10T00:44:50.159Z,99.90
2018-09-10T00:47:19.741Z,99.90
2018-09-10T00:49:49.798Z,99.90
2018-09-10T00:52:19.609Z,99.90
2018-09-10T00:54:49.163Z,99.90
2018-09-10T00:57:20.350Z,99.90
2018-09-10T00:59:49.893Z,99.90
2018-09-10T01:02:20.348Z,99.90
2018-09-10T01:04:49.584Z,99.90
2018-09-10T01:07:20.129Z,99.90
2018-09-10T01:09:49.683Z,99.90
2018-09-10T01:12:19.153Z,99.90
2018-09-10T01:14:49.562Z,99.90
2018-09-10T01:17:19.857Z,99.90
2018-09-10T01:19:49.276Z,99.90
2018-09-10T01:22:18.898Z,99.90
2018-09-10T01:24:49.979Z,99.90
2018-09-10T01:27:19.738Z,99.90
2018-09-10T01:29:49.139Z,99.90
2018-09-10T01:32:19.540Z,99.90
2018-09-10T01:34:54.078Z,99.90
2018-09-10T01:37:25.093Z,99.90
2018-09-10T01:39:55.059Z,99.90
2018-09-10T01:42:24.402Z,99.90
2018-09-10T01:44:55.367Z,99.90
2018-09-10T01:47:25.264Z,99.90
2018-09-10T01:49:55.477Z,99.90
2018-09-10T01:52:25.109Z,99.90
2018-09-10T01:54:55.543Z,99.90
2018-09-10T01:57:25.936Z,99.90
2018-09-10T01:59:56.199Z,99.90
2018-09-10T02:02:26.920Z,99.90
2018-09-10T02:04:56.360Z,99.90
2018-09-10T02:07:26.740Z,99.90
2018-09-10T02:09:56.208Z,99.90
2018-09-10T02:12:26.664Z,99.90
2018-09-10T02:14:57.099Z,99.90
2018-09-10T02:17:27.564Z,99.90
2018-09-10T02:19:58.165Z,99.90
2018-09-10T02:22:28.429Z,99.90
2018-09-10T02:24:58.121Z,99.90
2018-09-10T02:27:29.329Z,99.90
2018-09-10T02:30:00.331Z,99.90
2018-09-10T02:32:30.250Z,99.90
2018-09-10T02:35:00.385Z,99.90
2018-09-10T02:37:30.060Z,99.90
2018-09-10T02:40:00.235Z,99.90
2018-09-10T02:42:30.928Z,99.90
2018-09-10T02:45:01.192Z,99.90
2018-09-10T02:47:30.851Z,99.90
2018-09-10T02:50:01.240Z,99.90
2018-09-10T02:52:30.673Z,99.90
2018-09-10T02:55:01.715Z,99.90
2018-09-10T02:57:32.292Z,99.90
2018-09-10T03:00:02.801Z,99.90
2018-09-10T03:02:34.028Z,99.90
2018-09-10T03:05:04.924Z,99.90
2018-09-10T03:07:35.298Z,99.90
2018-09-10T03:10:04.829Z,99.90
2018-09-10T03:12:35.210Z,99.90
2018-09-10T03:15:05.400Z,99.90
2018-09-10T03:17:36.132Z,99.90
2018-09-10T03:20:05.588Z,99.90
2018-09-10T03:22:36.018Z,99.90
2018-09-10T03:25:05.472Z,99.90
2018-09-10T03:27:36.801Z,99.90
2018-09-10T03:30:06.431Z,99.90
2018-09-10T03:32:37.799Z,99.90
2018-09-10T03:35:08.188Z,99.90
2018-09-10T03:37:38.691Z,99.90
2018-09-10T03:40:08.857Z,99.90
2018-09-10T03:42:39.305Z,99.90
2018-09-10T03:45:10.044Z,99.90
2018-09-10T03:47:40.404Z,99.90
2018-09-10T03:50:10.917Z,99.90
2018-09-10T03:52:41.867Z,99.90
2018-09-10T03:55:12.312Z,99.90
2018-09-10T03:57:46.001Z,99.90
2018-09-10T04:00:16.756Z,99.90
2018-09-10T04:02:46.651Z,99.90
2018-09-10T04:05:16.562Z,99.90
2018-09-10T04:07:46.391Z,99.90
2018-09-10T04:10:16.256Z,99.90
2018-09-10T04:12:46.112Z,99.90
2018-09-10T04:15:15.825Z,99.90
2018-09-10T04:17:45.845Z,99.90
2018-09-10T04:20:15.724Z,99.90
2018-09-10T04:22:45.577Z,99.90
2018-09-10T04:25:15.416Z,99.90
2018-09-10T04:27:46.628Z,99.90
2018-09-10T04:30:17.184Z,99.90
2018-09-10T04:32:47.008Z,99.90
2018-09-10T04:35:16.861Z,99.90
2018-09-10T04:37:46.732Z,99.90
2018-09-10T04:40:16.636Z,99.90
2018-09-10T04:42:47.308Z,99.90
2018-09-10T04:45:17.406Z,99.90
2018-09-10T04:47:48.214Z,99.90
2018-09-10T04:50:18.053Z,99.90
2018-09-10T04:52:47.909Z,99.90
2018-09-10T04:55:19.172Z,99.90
2018-09-10T04:57:50.012Z,99.90
2018-09-10T05:00:20.469Z,99.90
2018-09-10T05:02:50.386Z,99.90
2018-09-10T05:05:22.525Z,99.90
2018-09-10T05:07:53.051Z,99.90
2018-09-10T05:10:24.295Z,99.90
2018-09-10T05:12:54.802Z,99.90
2018-09-10T05:15:24.779Z,99.90
2018-09-10T05:17:54.360Z,99.90
2018-09-10T05:20:24.431Z,99.90
2018-09-10T05:22:55.105Z,99.90
2018-09-10T05:25:25.612Z,99.90
2018-09-10T05:27:56.600Z,99.90
2018-09-10T05:30:26.988Z,99.90
2018-09-10T05:32:56.852Z,99.90
2018-09-10T05:35:26.714Z,99.90
2018-09-10T05:37:56.585Z,99.90
2018-09-10T05:40:27.353Z,99.90
2018-09-10T05:42:58.232Z,99.90
2018-09-10T05:45:29.165Z,99.90
2018-09-10T05:47:59.056Z,99.90
2018-09-10T05:50:28.907Z,99.90
2018-09-10T05:52:58.739Z,99.90
2018-09-10T05:55:28.610Z,99.90
2018-09-10T05:57:58.523Z,99.90
2018-09-10T06:00:29.343Z,99.90
2018-09-10T06:02:59.920Z,99.90
2018-09-10T06:05:31.036Z,99.90
2018-09-10T06:08:01.436Z,99.90
2018-09-10T06:10:32.731Z,99.90
2018-09-10T06:13:03.816Z,99.90
2018-09-10T06:15:36.228Z,99.90
2018-09-10T06:18:07.126Z,99.90
2018-09-10T06:20:39.316Z,99.90
2018-09-10T06:23:33.532Z,99.90
2018-09-10T06:26:03.459Z,99.90
2018-09-10T06:28:33.145Z,99.90
2018-09-10T06:31:03.913Z,99.90
2018-09-10T06:33:33.845Z,99.90
2018-09-10T06:36:03.707Z,99.90
2018-09-10T06:38:34.442Z,99.90
2018-09-10T06:41:04.321Z,99.90
2018-09-10T06:43:33.180Z,99.90
2018-09-10T06:46:03.810Z,99.90
2018-09-10T06:48:35.912Z,96.60
2018-09-10T06:51:08.522Z,99.10
2018-09-10T06:53:38.660Z,98.40
2018-09-10T06:56:08.521Z,85.70
2018-09-10T06:58:38.308Z,90.20
2018-09-10T07:01:08.133Z,92.40
2018-09-10T07:03:38.017Z,92.10
2018-09-10T07:06:09.739Z,63.90
2018-09-10T07:08:39.025Z,55.30
2018-09-10T07:11:09.335Z,51.80
2018-09-10T07:13:39.409Z,52.10
2018-09-10T07:16:10.287Z,50.50
2018-09-10T07:18:40.220Z,48.50
2018-09-10T07:21:10.934Z,48.00
2018-09-10T07:23:40.877Z,45.60
2018-09-10T07:26:10.713Z,44.40
2018-09-10T07:28:40.480Z,45.80
2018-09-10T07:31:11.338Z,45.10
2018-09-10T07:33:42.012Z,44.20
2018-09-10T07:36:12.179Z,43.70
2018-09-10T07:38:41.996Z,42.40
2018-09-10T07:41:11.836Z,44.10
2018-09-10T07:43:42.280Z,42.70
2018-09-10T07:46:12.551Z,41.70
2018-09-10T07:48:43.262Z,40.10
2018-09-10T07:51:14.180Z,40.30
2018-09-10T07:53:44.890Z,41.00
2018-09-10T07:56:15.886Z,41.80
2018-09-10T07:58:46.561Z,39.80
2018-09-10T08:01:16.583Z,41.90
2018-09-10T08:03:46.312Z,39.90
2018-09-10T08:06:15.918Z,39.10
2018-09-10T08:08:44.677Z,39.80
2018-09-10T08:11:13.807Z,40.00
2018-09-10T08:13:43.869Z,37.50
2018-09-10T08:16:13.643Z,38.20
2018-09-10T08:18:44.495Z,38.40
2018-09-10T08:21:14.327Z,36.30
2018-09-10T08:23:44.999Z,38.80
2018-09-10T08:26:14.987Z,38.00
2018-09-10T08:28:44.908Z,39.90
2018-09-10T08:31:14.789Z,34.80
2018-09-10T08:33:43.620Z,34.80
2018-09-10T08:36:13.351Z,36.70
2018-09-10T08:38:43.868Z,35.20
2018-09-10T08:41:13.268Z,37.60
2018-09-10T08:43:42.065Z,37.70
2018-09-10T08:46:11.708Z,37.90
2018-09-10T08:48:41.663Z,35.60
2018-09-10T08:51:12.612Z,33.90
2018-09-10T08:53:42.354Z,35.60
2018-09-10T08:56:13.325Z,30.10
2018-09-10T08:58:43.057Z,33.40
2018-09-10T09:01:12.909Z,34.40
2018-09-10T09:03:43.480Z,33.40
2018-09-10T09:06:12.344Z,35.60
2018-09-10T09:08:43.372Z,34.10
2018-09-10T09:11:12.471Z,30.80
2018-09-10T09:13:41.286Z,34.50
2018-09-10T09:16:11.670Z,32.20
2018-09-10T09:18:42.550Z,32.90
2018-09-10T09:21:12.575Z,32.80
2018-09-10T09:23:42.417Z,29.80
2018-09-10T09:26:16.970Z,31.20
2018-09-10T09:28:46.623Z,31.30
2018-09-10T09:31:15.492Z,32.00
2018-09-10T09:33:44.917Z,33.40
2018-09-10T09:38:26.128Z,31.50
2018-09-10T09:41:01.127Z,34.80
2018-09-10T09:43:36.037Z,31.10
2018-09-10T09:46:07.776Z,31.80
2018-09-10T09:48:38.856Z,29.70
2018-09-10T09:51:08.805Z,32.80
2018-09-10T09:53:39.533Z,31.60
2018-09-10T09:56:10.452Z,31.80
2018-09-10T09:58:40.274Z,32.10
2018-09-10T10:01:16.543Z,28.90
2018-09-10T10:03:50.932Z,28.90
2018-09-10T10:06:21.008Z,33.60
2018-09-10T10:08:50.849Z,29.00
2018-09-10T10:11:20.850Z,30.70
2018-09-10T10:13:50.584Z,30.30
2018-09-10T10:16:20.468Z,31.20
2018-09-10T10:18:51.617Z,32.00
2018-09-10T10:21:23.065Z,31.50
2018-09-10T10:23:53.874Z,30.10
2018-09-10T10:26:23.816Z,32.50
2018-09-10T10:28:53.745Z,31.10
2018-09-10T10:31:23.500Z,29.90
2018-09-10T10:33:53.357Z,31.50
2018-09-10T10:36:24.143Z,33.40
2018-09-10T10:38:53.938Z,32.10
2018-09-10T10:41:23.841Z,29.20
2018-09-10T10:43:53.704Z,29.00
2018-09-10T10:46:24.272Z,29.20
2018-09-10T10:48:54.383Z,33.00
2018-09-10T10:51:24.889Z,29.80
2018-09-10T10:53:56.823Z,28.70
2018-09-10T10:56:26.857Z,32.20
2018-09-10T10:58:57.609Z,32.10
2018-09-10T11:01:27.558Z,30.90
2018-09-10T11:03:57.484Z,29.00
2018-09-10T11:06:28.071Z,31.90
2018-09-10T11:08:58.109Z,30.10
2018-09-10T11:11:28.038Z,30.80
2018-09-10T11:13:57.820Z,30.80
2018-09-10T11:16:27.698Z,29.90
2018-09-10T11:18:57.536Z,30.90
2018-09-10T11:21:27.375Z,29.90
2018-09-10T11:23:56.471Z,27.70
2018-09-10T11:26:26.024Z,28.90
2018-09-10T11:28:54.867Z,31.00
2018-09-10T11:31:24.515Z,30.00
2018-09-10T11:33:54.421Z,30.50
2018-09-10T11:36:25.316Z,31.70
2018-09-10T11:38:54.627Z,33.00
2018-09-10T11:41:23.845Z,31.90
2018-09-10T11:43:52.898Z,31.40
2018-09-10T11:46:22.733Z,30.60
2018-09-10T11:48:52.591Z,31.80
2018-09-10T11:51:22.404Z,32.60
2018-09-10T11:53:51.185Z,28.50
2018-09-10T11:56:20.095Z,27.80
2018-09-10T11:58:49.895Z,27.90
2018-09-10T12:01:19.486Z,30.70
2018-09-10T12:03:49.300Z,29.70
2018-09-10T12:06:19.403Z,30.00
2018-09-10T12:08:49.180Z,30.10
2018-09-10T12:11:19.079Z,32.60
2018-09-10T12:13:48.960Z,31.90
2018-09-10T12:16:18.481Z,31.80
2018-09-10T12:18:48.515Z,34.30
2018-09-10T12:21:18.435Z,30.30
2018-09-10T12:23:48.279Z,29.40
2018-09-10T12:26:18.168Z,33.50
2018-09-10T12:28:47.976Z,34.70
2018-09-10T12:31:17.384Z,31.60
2018-09-10T12:33:46.208Z,31.10
2018-09-10T12:36:16.024Z,33.20
2018-09-10T12:38:44.911Z,35.40
2018-09-10T12:41:14.891Z,36.30
2018-09-10T12:43:44.988Z,38.60
2018-09-10T12:46:14.331Z,38.60
2018-09-10T12:48:43.195Z,37.30
2018-09-10T12:51:13.300Z,35.30
2018-09-10T12:53:43.237Z,36.40
2018-09-10T12:56:13.188Z,34.90
2018-09-10T12:58:44.010Z,35.40
2018-09-10T13:01:13.877Z,40.70
2018-09-10T13:03:44.912Z,33.70
2018-09-10T13:06:15.335Z,34.80
2018-09-10T13:08:46.189Z,36.20
2018-09-10T13:11:17.242Z,36.00
2018-09-10T13:13:46.600Z,34.30
2018-09-10T13:16:15.458Z,36.70
2018-09-10T13:18:44.874Z,37.90
2018-09-10T13:21:15.606Z,36.70
2018-09-10T13:23:45.464Z,34.50
2018-09-10T13:26:14.640Z,35.60
2018-09-10T13:28:44.187Z,38.10
2018-09-10T13:31:14.036Z,39.30
2018-09-10T13:33:43.240Z,36.90
2018-09-10T13:36:12.746Z,37.90
2018-09-10T13:38:42.571Z,39.50
2018-09-10T13:41:12.376Z,37.90
2018-09-10T13:43:42.906Z,40.40
2018-09-10T13:46:13.090Z,43.30
2018-09-10T13:48:42.895Z,39.80
2018-09-10T13:51:14.375Z,40.90
2018-09-10T13:53:44.493Z,40.10
2018-09-10T13:56:13.787Z,40.80
2018-09-10T13:58:44.013Z,42.40
2018-09-10T14:01:15.309Z,43.70
2018-09-10T14:03:46.744Z,43.30
2018-09-10T14:06:16.792Z,40.90
2018-09-10T14:08:46.711Z,41.20
2018-09-10T14:11:17.289Z,40.40
2018-09-10T14:13:48.431Z,42.80
2018-09-10T14:16:18.269Z,43.70
2018-09-10T14:18:49.512Z,43.00
2018-09-10T14:21:25.041Z,43.20
2018-09-10T14:23:54.882Z,43.30
2018-09-10T14:26:27.511Z,42.10
2018-09-10T14:29:06.571Z,43.80
2018-09-10T14:31:36.405Z,43.90
2018-09-10T14:34:07.443Z,45.50
2018-09-10T14:36:38.160Z,47.80
2018-09-10T14:39:28.098Z,48.50
2018-09-10T14:41:58.261Z,48.00
2018-09-10T14:44:29.256Z,49.10
2018-09-10T14:47:00.397Z,48.40
2018-09-10T14:49:31.361Z,46.90
2018-09-10T14:52:01.647Z,45.50
2018-09-10T14:54:34.503Z,46.20
2018-09-10T14:57:04.620Z,48.00
2018-09-10T14:59:35.055Z,46.40
2018-09-10T15:02:05.928Z,44.30
2018-09-10T15:04:36.993Z,44.80
2018-09-10T15:07:06.790Z,47.20
2018-09-10T15:09:37.399Z,47.60
2018-09-10T15:12:08.116Z,48.50
2018-09-10T15:14:38.997Z,47.90
2018-09-10T15:17:09.190Z,48.00
2018-09-10T15:19:40.024Z,50.80
2018-09-10T15:22:09.888Z,53.50
2018-09-10T15:24:41.585Z,51.90
2018-09-10T15:27:11.592Z,55.50
2018-09-10T15:29:42.121Z,56.70
2018-09-10T15:32:13.297Z,56.50
2018-09-10T15:34:44.431Z,72.10
2018-09-10T15:37:15.824Z,79.60
2018-09-10T15:39:46.896Z,97.80
2018-09-10T15:42:17.892Z,99.90
2018-09-10T15:44:48.531Z,99.90
2018-09-10T15:47:18.566Z,99.90
2018-09-10T15:49:48.204Z,94.70
2018-09-10T15:52:18.025Z,99.90
2018-09-10T15:54:48.849Z,99.90
2018-09-10T15:57:18.742Z,99.90
2018-09-10T15:59:49.847Z,99.90
2018-09-10T16:02:19.475Z,99.90
2018-09-10T16:04:49.957Z,99.90
2018-09-10T16:07:20.096Z,99.90
2018-09-10T16:09:50.819Z,99.90
2018-09-10T16:12:20.744Z,99.90
2018-09-10T16:14:50.559Z,99.90
2018-09-10T16:17:20.425Z,99.90
2018-09-10T16:19:50.276Z,99.90
2018-09-10T16:22:20.104Z,99.90
2018-09-10T16:24:50.059Z,99.90
2018-09-10T16:27:25.783Z,99.90
2018-09-10T16:29:56.717Z,99.90
2018-09-10T16:32:36.711Z,99.90
2018-09-10T16:35:07.576Z,99.90
2018-09-10T16:37:38.537Z,99.90
2018-09-10T16:40:09.306Z,99.90
2018-09-10T16:42:40.464Z,99.90
2018-09-10T16:45:09.983Z,99.90
2018-09-10T16:47:41.547Z,99.90
2018-09-10T16:50:11.672Z,99.90
2018-09-10T16:52:42.501Z,99.90
2018-09-10T16:55:13.040Z,99.90
2018-09-10T16:57:43.200Z,99.90
2018-09-10T17:00:13.712Z,99.90
2018-09-10T17:02:43.893Z,99.90
2018-09-10T17:05:16.278Z,99.90
2018-09-10T17:07:46.589Z,99.90
2018-09-10T17:10:17.217Z,99.90
2018-09-10T17:12:47.978Z,99.90
2018-09-10T17:15:19.876Z,99.90
2018-09-10T17:17:50.711Z,99.90
2018-09-10T17:20:22.828Z,99.90
2018-09-10T17:22:53.508Z,99.90
2018-09-10T17:25:26.288Z,99.90
2018-09-10T17:27:57.165Z,99.90
2018-09-10T17:33:33.444Z,99.90
2018-09-10T17:36:05.548Z,99.90
2018-09-10T17:43:00.255Z,99.90
2018-09-10T17:45:31.449Z,99.90
2018-09-10T17:48:01.954Z,99.90
2018-09-10T17:50:32.777Z,99.90
2018-09-10T17:53:03.796Z,99.90
2018-09-10T17:55:34.527Z,99.90
2018-09-10T17:58:05.600Z,99.90
2018-09-10T18:00:39.542Z,99.90
2018-09-10T18:03:12.275Z,99.90
2018-09-10T18:05:43.204Z,99.90
2018-09-10T18:08:14.513Z,99.90
2018-09-10T18:10:45.036Z,99.90
2018-09-10T18:13:15.509Z,99.90
2018-09-10T18:15:49.140Z,99.90
2018-09-10T18:18:20.139Z,99.90
2018-09-10T18:20:51.043Z,99.90
2018-09-10T18:23:22.173Z,99.90
2018-09-10T18:25:52.951Z,99.90
2018-09-10T18:28:23.903Z,99.90
2018-09-10T18:30:54.431Z,99.90
2018-09-10T18:33:26.957Z,99.90
2018-09-10T18:35:59.947Z,99.90
2018-09-10T18:38:37.396Z,99.90
2018-09-10T18:41:13.229Z,99.90
2018-09-10T18:46:29.321Z,99.90
2018-09-10T18:49:04.375Z,99.90
2018-09-10T18:51:46.356Z,99.90
2018-09-10T18:54:17.525Z,99.90
2018-09-10T18:56:55.910Z,99.90
2018-09-10T18:59:28.693Z,99.90
2018-09-10T19:01:59.318Z,99.90
2018-09-10T19:04:31.195Z,99.90
2018-09-10T19:07:04.070Z,99.90
2018-09-10T19:09:38.403Z,99.90
2018-09-10T19:12:08.835Z,99.90
2018-09-10T19:14:41.753Z,99.90
2018-09-10T19:17:14.374Z,99.90
2018-09-10T19:19:47.986Z,99.90
2018-09-10T19:22:18.621Z,99.90
2018-09-10T19:24:51.531Z,99.90
2018-09-10T19:27:24.203Z,99.90
2018-09-10T19:29:55.322Z,99.90
2018-09-10T19:32:26.108Z,99.90
2018-09-10T19:34:57.113Z,99.90
2018-09-10T19:37:27.486Z,99.90
2018-09-10T19:40:00.455Z,99.90
2018-09-10T19:42:32.797Z,99.90
2018-09-10T19:45:04.323Z,99.90
2018-09-10T19:47:37.475Z,99.90
2018-09-10T19:50:08.561Z,99.90
2018-09-10T19:52:40.975Z,99.90
2018-09-10T19:55:14.178Z,99.90
2018-09-10T19:57:49.109Z,99.90
2018-09-10T20:00:21.457Z,99.90
2018-09-10T20:02:52.859Z,99.90
2018-09-10T20:05:56.932Z,99.90
2018-09-10T20:08:30.244Z,99.90
2018-09-10T20:11:01.307Z,99.90
2018-09-10T20:13:33.336Z,99.90
2018-09-10T20:16:06.382Z,99.90
2018-09-10T20:18:38.084Z,99.90
2018-09-10T20:21:08.919Z,99.90
2018-09-10T20:23:39.548Z,99.90
2018-09-10T20:26:10.689Z,99.90
2018-09-10T20:28:41.180Z,99.90
2018-09-10T20:31:12.736Z,99.90
2018-09-10T20:33:48.207Z,99.90
2018-09-10T20:36:20.111Z,99.90
2018-09-10T20:38:50.959Z,99.90
2018-09-10T20:41:21.464Z,99.90
2018-09-10T20:43:52.305Z,99.90
2018-09-10T20:46:23.534Z,99.90
2018-09-10T20:48:55.008Z,99.90
2018-09-10T20:51:27.881Z,99.90
2018-09-10T20:53:58.079Z,99.90
2018-09-10T20:56:31.085Z,99.90
2018-09-10T20:59:01.563Z,99.90
2018-09-10T21:01:33.289Z,99.90
2018-09-10T21:04:06.024Z,99.90
2018-09-10T21:06:37.006Z,99.90
2018-09-10T21:09:09.883Z,99.90
2018-09-10T21:11:40.960Z,99.90
2018-09-10T21:14:11.643Z,99.90
2018-09-10T21:16:41.726Z,99.90
2018-09-10T21:19:12.273Z,99.90
2018-09-10T21:21:43.583Z,99.90
2018-09-10T21:24:13.606Z,99.90
2018-09-10T21:26:44.572Z,99.90
2018-09-10T21:29:15.136Z,99.90
2018-09-10T21:37:07.636Z,99.90
2018-09-10T21:39:39.599Z,99.90
2018-09-10T21:42:10.198Z,99.90
2018-09-10T21:44:42.043Z,99.90
2018-09-10T21:47:12.990Z,99.90
2018-09-10T21:49:44.927Z,99.90
2018-09-10T21:52:15.984Z,99.90
2018-09-10T21:54:46.482Z,99.90
2018-09-10T21:57:17.411Z,99.90
2018-09-10T21:59:49.539Z,99.90
2018-09-10T22:02:23.331Z,99.90
2018-09-10T22:04:54.267Z,99.90
2018-09-10T22:07:25.083Z,99.90
2018-09-10T22:09:57.361Z,99.90
2018-09-10T22:12:30.762Z,99.90
2018-09-10T22:15:01.309Z,99.90
2018-09-10T22:17:34.492Z,99.90
2018-09-10T22:20:04.900Z,99.90
2018-09-10T22:22:35.921Z,99.90
2018-09-10T22:25:08.879Z,99.90
2018-09-10T22:27:39.289Z,99.90
2018-09-10T22:30:10.400Z,99.90
2018-09-10T22:32:41.360Z,99.90
2018-09-10T22:35:11.809Z,99.90
2018-09-10T22:37:43.027Z,99.90
2018-09-10T22:40:14.655Z,99.90
2018-09-10T22:42:45.627Z,99.90
2018-09-10T22:45:16.576Z,99.90
2018-09-10T22:47:47.574Z,99.90
2018-09-10T22:50:18.460Z,99.90
2018-09-10T22:52:49.419Z,99.90
2018-09-10T22:55:21.500Z,99.90
2018-09-10T22:57:52.549Z,99.90
2018-09-10T23:00:23.866Z,99.90
2018-09-10T23:02:55.019Z,99.90
2018-09-10T23:05:26.157Z,99.90
2018-09-10T23:07:57.121Z,99.90
2018-09-10T23:10:27.708Z,99.90
2018-09-10T23:12:58.843Z,99.90
2018-09-10T23:15:29.643Z,99.90
2018-09-10T23:18:00.025Z,99.90
2018-09-10T23:20:32.472Z,99.90
2018-09-10T23:23:03.555Z,99.90
2018-09-10T23:25:34.672Z,99.90
2018-09-10T23:28:05.146Z,99.90
2018-09-10T23:30:36.361Z,99.90
2018-09-10T23:33:08.736Z,99.90
2018-09-10T23:35:40.468Z,99.90
2018-09-10T23:38:11.449Z,99.90
2018-09-10T23:40:42.159Z,99.90
2018-09-10T23:43:13.816Z,99.90
2018-09-10T23:45:43.969Z,99.90
2018-09-10T23:48:14.733Z,99.90
2018-09-10T23:50:45.986Z,99.90
2018-09-10T23:53:16.608Z,99.90
2018-09-10T23:55:47.071Z,99.90
2018-09-10T23:58:17.505Z,99.90
